Ola, Arkansas
Current Conditions -  °F | °C
As of 4:53 AM on Saturday 22 Nov 2014 (Local Time) from KRUE Reporting Station
Haze Haze  
Wind Chill: 10°   Ceiling: 3700
Heat Index: 10°   Visibility: 4mi
Dew Point:   Wind: 0mph
Humidity: 93%   Direction: NA
Pressure: 30.17"   Gusts: NA
Location:  35.03°N, 93.22°W
Report Text: KRUE 221053Z AUTO 00000KT 4SM BR OVC037 10/09 A3017 RMK AO2 SLP214 T01000089
Loading
Personal Weather Stations






























Interactive Weather Map New forecast layout! Learn more

10-Day Weather Forecast

Advertisements
Track Severe Weather on mobile